Time;durP1;ratioP1;P1;durP2;ratioP2;P2;SDS_P1;SDS_P2;PMS_P1;PMS_P2;Temp;Humidity;BMP_temperature;BMP_pressure;BME280_temperature;BME280_humidity;BME280_pressure;Samples;Min_cycle;Max_cycle;Signal;HPM_P1;HPM_P2
2023/05/05 00:00:12;;;;;;;16.98;5.65;;;;;;;12.24;49.25;100002.25;4922650;28;21001;-56
2023/05/05 00:02:42;;;;;;;13.60;5.15;;;;;;;12.19;49.25;99970.09;4918272;28;20052;-56
2023/05/05 00:05:13;;;;;;;10.65;5.18;;;;;;;12.34;47.40;100003.72;4916766;28;20051;-56
2023/05/05 00:07:43;;;;;;;11.07;5.03;;;;;;;12.18;48.33;100002.41;4916598;28;20044;-56
2023/05/05 00:10:14;;;;;;;12.07;4.80;;;;;;;12.18;48.46;99986.69;4918013;28;20052;-56
2023/05/05 00:12:46;;;;;;;15.73;5.80;;;;;;;12.24;49.00;100002.25;4929515;28;20040;-56
2023/05/05 00:15:17;;;;;;;12.23;4.90;;;;;;;12.37;48.77;99995.75;4934588;28;20375;-56
2023/05/05 00:17:48;;;;;;;9.95;4.70;;;;;;;12.54;49.44;99995.28;4922719;28;20129;-56
2023/05/05 00:20:18;;;;;;;12.98;5.10;;;;;;;12.93;49.59;99989.78;4914392;28;20056;-56
2023/05/05 00:22:49;;;;;;;17.45;4.47;;;;;;;12.97;47.40;100001.88;4917564;28;20056;-57
2023/05/05 00:25:19;;;;;;;8.80;4.60;;;;;;;12.65;47.25;99997.59;4934418;28;20440;-56
2023/05/05 00:27:52;;;;;;;12.27;4.68;;;;;;;12.55;47.38;99993.50;4935184;28;20041;-56
2023/05/05 00:30:23;;;;;;;7.82;3.97;;;;;;;12.51;46.82;99991.00;4936335;28;20117;-56
2023/05/05 00:32:54;;;;;;;10.60;4.70;;;;;;;12.49;48.01;99992.78;4936324;28;20052;-55
2023/05/05 00:35:25;;;;;;;15.63;4.75;;;;;;;12.78;48.23;99996.34;4933499;28;20060;-55
2023/05/05 00:37:56;;;;;;;8.68;3.97;;;;;;;13.23;47.57;99990.59;4934543;28;20044;-56
2023/05/05 00:40:27;;;;;;;11.75;4.15;;;;;;;13.12;45.80;99984.81;4932420;28;20159;-56
2023/05/05 00:42:59;;;;;;;10.18;4.20;;;;;;;13.09;47.09;99982.28;4935001;28;20052;-56
2023/05/05 00:45:30;;;;;;;13.25;4.13;;;;;;;13.12;45.76;99990.06;4933406;28;20052;-55
2023/05/05 00:48:02;;;;;;;15.35;4.43;;;;;;;13.16;46.11;99986.44;4924890;28;20144;-56
2023/05/05 00:50:32;;;;;;;13.55;3.92;;;;;;;13.39;45.49;99996.22;4915268;28;20049;-55
2023/05/05 00:53:04;;;;;;;6.85;3.50;;;;;;;13.31;44.15;99983.34;4917004;28;20055;-56
2023/05/05 00:55:35;;;;;;;16.27;3.63;;;;;;;13.23;45.42;99985.34;4916455;28;20052;-56
2023/05/05 00:58:07;;;;;;;15.13;3.53;;;;;;;13.47;45.54;99972.34;4934102;28;20074;-56
2023/05/05 01:00:37;;;;;;;13.73;4.00;;;;;;;13.48;43.42;99981.94;4933352;28;20052;-56
2023/05/05 01:03:08;;;;;;;10.52;3.58;;;;;;;13.31;44.14;99972.00;4933869;28;20055;-56
2023/05/05 01:05:56;;;;;;;8.55;3.33;;;;;;;13.18;44.99;99982.00;4932295;28;20450;-56
2023/05/05 01:08:39;;;;;;;10.70;3.30;;;;;;;13.31;44.75;99936.13;4911956;28;20131;-56
2023/05/05 01:26:01;;;;;;;12.55;2.35;;;;;;;13.42;35.05;99961.16;4912585;28;20153;-59
2023/05/05 01:28:54;;;;;;;9.27;1.67;;;;;;;13.47;36.32;99972.34;4866916;28;20046;-59
2023/05/05 01:31:43;;;;;;;4.55;1.65;;;;;;;13.33;36.33;99970.19;4863119;28;20062;-59
2023/05/05 01:34:17;;;;;;;5.88;1.75;;;;;;;13.23;36.75;99953.88;4864483;28;20151;-59
2023/05/05 01:36:56;;;;;;;3.80;1.73;;;;;;;12.55;36.97;99870.34;4880337;28;20428;-60
2023/05/05 01:39:32;;;;;;;6.05;2.00;;;;;;;13.30;38.09;99934.38;4870836;28;20056;-58
2023/05/05 01:42:06;;;;;;;8.30;2.50;;;;;;;13.32;39.78;99937.81;4879141;28;21526;-59
2023/05/05 01:44:38;;;;;;;6.97;2.20;;;;;;;13.01;39.94;99908.25;4862677;28;20119;-59
2023/05/05 01:47:11;;;;;;;15.02;2.72;;;;;;;13.42;38.21;99953.28;4866019;28;20057;-59
2023/05/05 01:49:45;;;;;;;6.57;2.33;;;;;;;13.53;39.13;99943.31;4880096;28;20049;-59
2023/05/05 01:52:17;;;;;;;11.88;2.63;;;;;;;13.72;38.80;99941.75;4854732;28;20058;-59
2023/05/05 01:54:48;;;;;;;5.65;2.03;;;;;;;13.92;39.40;99927.91;4865593;28;20077;-58
2023/05/05 01:57:20;;;;;;;6.10;2.38;;;;;;;13.89;37.61;99938.53;4867035;28;20054;-59
2023/05/05 01:59:53;;;;;;;11.95;1.95;;;;;;;14.00;38.15;99930.25;4875919;28;20060;-59
2023/05/05 02:02:28;;;;;;;11.43;1.90;;;;;;;14.06;36.98;99953.72;4873507;28;20050;-59
2023/05/05 02:05:00;;;;;;;4.80;1.98;;;;;;;14.06;37.76;99945.81;4878719;28;20098;-59
2023/05/05 02:07:34;;;;;;;3.45;1.77;;;;;;;13.80;36.69;99944.09;4879988;28;20052;-60
2023/05/05 02:10:05;;;;;;;8.45;2.03;;;;;;;13.85;37.08;99946.56;4872710;28;20150;-59
2023/05/05 02:12:38;;;;;;;8.55;2.38;;;;;;;13.86;38.66;99958.81;4879951;28;20053;-59
2023/05/05 02:15:11;;;;;;;9.45;2.10;;;;;;;13.62;38.03;99950.84;4880351;28;20077;-59
2023/05/05 02:17:45;;;;;;;9.10;2.25;;;;;;;13.56;38.29;99951.06;4880181;28;20060;-59
2023/05/05 02:20:17;;;;;;;5.65;1.80;;;;;;;13.45;37.12;99942.69;4862883;28;20049;-59
2023/05/05 02:22:47;;;;;;;6.60;2.00;;;;;;;13.50;38.21;99946.00;4866408;28;20053;-59
2023/05/05 02:25:18;;;;;;;4.60;1.80;;;;;;;13.21;37.41;99947.81;4855393;28;20135;-59
2023/05/05 02:27:51;;;;;;;7.75;2.03;;;;;;;13.27;38.54;99939.75;4867857;28;20065;-59
2023/05/05 02:30:23;;;;;;;5.90;1.90;;;;;;;13.27;37.40;99933.66;4861802;28;20069;-59
2023/05/05 02:33:00;;;;;;;5.57;1.75;;;;;;;13.36;38.58;99928.97;4863219;28;20077;-59
2023/05/05 02:35:36;;;;;;;3.47;1.70;;;;;;;13.59;37.55;99945.69;4867037;28;20116;-59
2023/05/05 02:38:10;;;;;;;4.63;1.73;;;;;;;13.63;36.87;99942.06;4848131;28;20070;-59
2023/05/05 02:40:43;;;;;;;2.28;1.60;;;;;;;13.53;36.40;99940.69;4867557;28;20112;-59
2023/05/05 02:43:18;;;;;;;3.28;1.50;;;;;;;13.49;36.47;99933.81;4856796;28;20050;-59
2023/05/05 02:45:49;;;;;;;2.67;1.58;;;;;;;13.51;36.03;99932.00;4866872;28;20424;-59
2023/05/05 02:48:21;;;;;;;10.23;1.90;;;;;;;12.98;37.35;99880.34;4866222;28;20050;-59
2023/05/05 02:50:52;;;;;;;3.35;1.50;;;;;;;13.21;37.21;99928.59;4865548;28;21072;-59
2023/05/05 02:53:27;;;;;;;6.82;1.65;;;;;;;13.16;37.02;99923.47;4865249;28;20206;-59
2023/05/05 02:56:06;;;;;;;2.63;1.52;;;;;;;13.24;36.78;99939.81;4867730;28;20045;-59
2023/05/05 02:58:43;;;;;;;9.32;1.67;;;;;;;13.48;37.20;99942.56;4857406;28;20648;-58
2023/05/05 03:01:27;;;;;;;9.40;1.77;;;;;;;13.58;36.51;99938.75;4845565;28;20801;-59
2023/05/05 03:04:07;;;;;;;5.93;1.52;;;;;;;13.48;35.61;99937.31;4856682;28;20073;-59
2023/05/05 03:06:41;;;;;;;2.28;1.48;;;;;;;13.49;35.91;99928.56;4858643;28;20416;-59
2023/05/05 03:09:16;;;;;;;3.47;1.50;;;;;;;13.64;35.28;99953.44;4867255;28;20061;-58
2023/05/05 03:11:50;;;;;;;5.20;2.08;;;;;;;13.61;35.54;99936.00;4857944;28;20049;-59
2023/05/05 03:14:22;;;;;;;3.35;1.67;;;;;;;13.57;36.59;99931.75;4840071;28;20069;-59
2023/05/05 03:16:55;;;;;;;6.47;1.58;;;;;;;13.76;35.63;99938.09;4852254;28;20412;-59
2023/05/05 03:19:29;;;;;;;3.53;1.75;;;;;;;13.56;36.46;99940.56;4849484;28;20038;-59
2023/05/05 03:22:00;;;;;;;5.30;1.90;;;;;;;13.70;37.06;99938.31;4866204;28;20103;-59
2023/05/05 03:24:31;;;;;;;2.05;1.55;;;;;;;13.66;35.94;99907.84;4864520;28;20052;-59
2023/05/05 03:27:03;;;;;;;3.28;1.60;;;;;;;13.16;35.91;99843.00;4861837;28;20795;-59
2023/05/05 03:29:34;;;;;;;2.40;1.42;;;;;;;13.73;35.94;99932.97;4859677;28;20062;-59
2023/05/05 03:32:05;;;;;;;3.95;1.50;;;;;;;13.23;36.36;99869.91;4855794;28;20061;-59
2023/05/05 03:34:37;;;;;;;8.05;1.52;;;;;;;13.63;36.93;99926.31;4867931;28;20128;-59
2023/05/05 03:37:07;;;;;;;2.75;1.50;;;;;;;13.49;35.59;99949.53;4864930;28;20053;-60
2023/05/05 03:39:38;;;;;;;7.50;2.13;;;;;;;13.44;35.36;99935.72;4865949;28;20126;-59
2023/05/05 03:42:09;;;;;;;8.98;1.80;;;;;;;13.48;36.18;99929.44;4866956;28;20058;-59
2023/05/05 03:44:39;;;;;;;4.28;1.70;;;;;;;13.24;35.41;99936.34;4864837;28;20053;-59
2023/05/05 03:47:10;;;;;;;2.95;1.50;;;;;;;13.15;35.32;99911.25;4853960;28;20214;-59
2023/05/05 03:49:42;;;;;;;2.78;1.52;;;;;;;13.23;36.66;99932.88;4862057;28;20406;-59
2023/05/05 03:52:12;;;;;;;4.75;2.00;;;;;;;13.23;35.75;99927.63;4866443;28;20057;-59
2023/05/05 03:54:44;;;;;;;1.77;1.45;;;;;;;13.19;36.45;99925.16;4861494;28;20595;-60
2023/05/05 03:57:15;;;;;;;2.38;1.70;;;;;;;13.27;35.88;99934.50;4863815;28;20049;-59
2023/05/05 03:59:46;;;;;;;6.30;1.92;;;;;;;13.26;35.99;99934.53;4866220;28;20116;-59
2023/05/05 04:02:17;;;;;;;3.15;1.70;;;;;;;13.34;35.83;99930.78;4865229;28;20143;-60
2023/05/05 04:04:49;;;;;;;4.57;2.00;;;;;;;13.28;35.81;99931.00;4864724;28;20150;-59
2023/05/05 04:07:21;;;;;;;8.18;1.80;;;;;;;13.57;36.34;99937.00;4849184;28;20057;-59
2023/05/05 04:09:52;;;;;;;5.53;1.75;;;;;;;13.59;35.74;99908.94;4865942;28;20056;-59
2023/05/05 04:12:22;;;;;;;5.47;1.80;;;;;;;13.79;36.15;99921.38;4865258;28;20938;-59
2023/05/05 04:14:53;;;;;;;2.30;1.50;;;;;;;13.67;34.21;99933.16;4863949;28;20381;-60
2023/05/05 04:17:23;;;;;;;7.80;1.80;;;;;;;13.05;35.10;99912.47;4872234;28;20055;-60
2023/05/05 04:19:55;;;;;;;4.13;1.75;;;;;;;13.03;36.00;99930.00;4867945;28;20054;-59
2023/05/05 04:22:26;;;;;;;2.90;1.75;;;;;;;12.93;36.64;99938.19;4865029;28;20397;-59
2023/05/05 04:24:57;;;;;;;8.75;1.80;;;;;;;12.99;36.84;99944.13;4849742;28;20672;-59
2023/05/05 04:27:28;;;;;;;3.88;1.70;;;;;;;13.06;36.67;99940.44;4864008;28;20107;-59
2023/05/05 04:29:59;;;;;;;12.40;1.90;;;;;;;13.09;36.90;99924.59;4864875;28;20049;-59
2023/05/05 04:32:30;;;;;;;10.48;1.95;;;;;;;13.23;36.00;99938.13;4864392;28;20835;-59
2023/05/05 04:35:02;;;;;;;8.35;1.35;;;;;;;13.03;36.39;99927.38;4865073;28;20450;-59
2023/05/05 04:37:33;;;;;;;11.77;1.98;;;;;;;13.08;36.68;99938.59;4863285;28;20058;-59
2023/05/05 04:40:03;;;;;;;5.18;2.00;;;;;;;13.12;36.73;99940.22;4871626;28;20054;-59
2023/05/05 04:42:34;;;;;;;5.82;1.85;;;;;;;13.07;36.75;99948.22;4868444;28;20046;-59
2023/05/05 04:45:05;;;;;;;4.70;1.80;;;;;;;12.94;36.05;99950.38;4866656;28;20077;-60
2023/05/05 04:47:38;;;;;;;3.72;1.58;;;;;;;12.51;35.84;99901.03;4864230;28;20053;-59
2023/05/05 04:50:14;;;;;;;6.93;1.85;;;;;;;12.75;37.40;99941.34;4864425;28;20033;-58
2023/05/05 04:52:45;;;;;;;4.55;2.00;;;;;;;12.93;37.62;99946.06;4848849;28;20049;-59
2023/05/05 04:55:15;;;;;;;7.53;1.60;;;;;;;13.04;36.46;99942.22;4867900;28;20069;-59
2023/05/05 04:57:46;;;;;;;7.07;2.10;;;;;;;13.06;36.61;99945.66;4865629;28;20064;-59
2023/05/05 05:00:17;;;;;;;4.07;1.83;;;;;;;12.45;36.30;99865.38;4866144;28;20513;-59
2023/05/05 05:02:47;;;;;;;4.15;1.80;;;;;;;12.89;36.79;99948.81;4866621;28;20037;-59
2023/05/05 05:05:20;;;;;;;5.80;1.30;;;;;;;12.71;36.36;99950.25;4873404;28;20041;-59
2023/05/05 05:07:51;;;;;;;4.30;1.73;;;;;;;12.34;36.66;99946.06;4855077;28;20049;-59
2023/05/05 05:10:21;;;;;;;9.88;1.80;;;;;;;12.37;37.94;99955.59;4862851;28;20465;-58
2023/05/05 05:12:52;;;;;;;8.63;2.08;;;;;;;12.45;37.64;99943.97;4850904;28;20536;-59
2023/05/05 05:15:23;;;;;;;11.60;2.22;;;;;;;12.39;37.13;99953.81;4864429;28;20059;-59
2023/05/05 05:17:53;;;;;;;5.45;1.45;;;;;;;12.05;36.94;99955.59;4871353;28;20509;-59
2023/05/05 05:20:26;;;;;;;4.53;2.08;;;;;;;11.83;37.21;99949.19;4868105;28;20062;-58
2023/05/05 05:22:57;;;;;;;5.20;1.50;;;;;;;11.65;37.70;99950.53;4866396;28;20485;-58
2023/05/05 05:25:28;;;;;;;3.58;1.70;;;;;;;11.52;38.40;99960.44;4864827;28;20049;-58
2023/05/05 05:27:59;;;;;;;5.40;1.75;;;;;;;11.45;38.20;99961.50;4848045;28;20072;-58
2023/05/05 05:30:38;;;;;;;2.45;1.63;;;;;;;11.68;38.51;99970.53;4855091;28;20135;-58
2023/05/05 05:33:09;;;;;;;6.10;1.60;;;;;;;11.64;37.77;99960.13;4856346;28;20504;-58
2023/05/05 05:35:41;;;;;;;4.63;1.60;;;;;;;11.66;37.62;99967.97;4863130;28;20061;-58
2023/05/05 05:38:12;;;;;;;6.03;1.60;;;;;;;11.76;37.84;99955.50;4861186;28;20058;-58
2023/05/05 05:40:42;;;;;;;5.60;1.55;;;;;;;11.65;37.01;99933.06;4863214;28;20393;-58
2023/05/05 05:43:13;;;;;;;3.65;1.45;;;;;;;11.65;36.83;99961.84;4845496;28;20064;-58
2023/05/05 05:45:43;;;;;;;8.07;1.60;;;;;;;11.70;37.26;99960.88;4870031;28;22079;-59
2023/05/05 05:48:14;;;;;;;5.88;1.50;;;;;;;11.69;36.98;99946.09;4873768;28;20058;-59
2023/05/05 05:50:46;;;;;;;4.22;1.67;;;;;;;11.73;38.10;99956.44;4870727;28;20365;-59
2023/05/05 05:53:17;;;;;;;3.63;1.40;;;;;;;11.80;36.90;99954.50;4866758;28;20111;-59
2023/05/05 05:55:47;;;;;;;4.45;1.40;;;;;;;11.64;36.86;99944.44;4865361;28;20389;-58
2023/05/05 05:58:18;;;;;;;6.07;1.60;;;;;;;11.68;36.94;99962.66;4862819;28;20128;-59
2023/05/05 06:00:49;;;;;;;5.20;1.65;;;;;;;11.07;36.18;99879.59;4866744;28;20049;-59
2023/05/05 06:03:20;;;;;;;10.60;2.33;;;;;;;11.76;37.96;99979.06;4870726;28;20424;-59
2023/05/05 06:05:52;;;;;;;6.20;1.50;;;;;;;11.86;36.55;99959.59;4867462;28;20053;-59
2023/05/05 06:08:23;;;;;;;4.22;1.33;;;;;;;11.85;36.16;99957.84;4864696;28;20454;-59
2023/05/05 06:10:53;;;;;;;14.40;2.38;;;;;;;11.91;36.65;99972.59;4872541;28;20645;-58
2023/05/05 06:13:24;;;;;;;7.63;1.52;;;;;;;11.86;36.73;99964.81;4878003;28;20033;-58
2023/05/05 06:15:56;;;;;;;5.93;1.88;;;;;;;11.99;37.22;99965.38;4869596;28;20057;-59
2023/05/05 06:18:26;;;;;;;5.00;1.60;;;;;;;12.00;36.54;99967.94;4867722;28;20053;-59
2023/05/05 06:20:59;;;;;;;2.90;1.48;;;;;;;12.02;36.87;99960.06;4866680;28;20625;-58
2023/05/05 06:23:29;;;;;;;5.10;1.60;;;;;;;12.13;36.55;99983.31;4857120;28;20782;-59
2023/05/05 06:26:00;;;;;;;9.63;1.77;;;;;;;12.18;35.98;99981.44;4866075;28;20060;-59
2023/05/05 06:28:30;;;;;;;2.22;1.27;;;;;;;12.35;36.22;99988.84;4866624;28;20053;-59
2023/05/05 06:31:01;;;;;;;3.60;1.58;;;;;;;12.36;36.14;99975.72;4867816;28;20053;-58
2023/05/05 06:33:32;;;;;;;6.63;1.40;;;;;;;12.19;35.29;99968.31;4865197;28;20049;-59
2023/05/05 06:36:07;;;;;;;5.43;1.63;;;;;;;12.31;36.42;99982.84;4867155;28;20047;-59
2023/05/05 06:38:38;;;;;;;3.10;1.30;;;;;;;12.30;35.14;99986.34;4866908;28;20443;-59
2023/05/05 06:41:08;;;;;;;2.55;1.75;;;;;;;12.32;35.75;99989.78;4869100;28;20054;-59
2023/05/05 06:43:41;;;;;;;7.97;1.42;;;;;;;12.20;35.75;99988.34;4867993;28;20054;-58
2023/05/05 06:46:13;;;;;;;3.42;1.55;;;;;;;12.21;35.86;99981.38;4866307;28;20490;-59
2023/05/05 06:48:43;;;;;;;1.98;1.30;;;;;;;12.23;35.25;99979.56;4875422;28;20053;-58
2023/05/05 06:51:15;;;;;;;4.05;1.23;;;;;;;12.33;35.69;99986.28;4873319;28;20046;-59
2023/05/05 06:53:46;;;;;;;10.27;1.40;;;;;;;12.13;36.77;99978.09;4868706;28;20052;-59
2023/05/05 06:56:16;;;;;;;11.15;1.48;;;;;;;12.09;35.72;99988.66;4868379;28;20053;-58
2023/05/05 06:58:47;;;;;;;16.00;2.03;;;;;;;11.98;36.19;99988.09;4868265;28;20497;-58
2023/05/05 07:01:18;;;;;;;5.43;1.48;;;;;;;11.91;35.95;99989.16;4850966;28;20073;-59
2023/05/05 07:03:48;;;;;;;5.15;1.27;;;;;;;11.84;36.19;99998.03;4867116;28;20461;-59
2023/05/05 07:06:21;;;;;;;5.07;1.50;;;;;;;11.73;36.74;100000.94;4866576;28;20065;-58
2023/05/05 07:08:51;;;;;;;14.50;2.03;;;;;;;11.60;37.15;100000.34;4865641;28;20053;-58
2023/05/05 07:11:22;;;;;;;2.25;1.40;;;;;;;11.54;36.66;100005.75;4867696;28;20062;-59
2023/05/05 07:13:55;;;;;;;12.43;2.08;;;;;;;11.43;37.19;100010.38;4865364;28;20596;-59
2023/05/05 07:16:28;;;;;;;4.22;1.30;;;;;;;11.40;37.13;100013.06;4840833;28;20065;-59
2023/05/05 07:18:59;;;;;;;4.97;1.48;;;;;;;11.33;36.72;100009.75;4866350;28;20148;-59
2023/05/05 07:21:31;;;;;;;5.25;1.40;;;;;;;11.27;37.52;100014.25;4866147;28;20081;-59
2023/05/05 07:24:02;;;;;;;7.47;1.98;;;;;;;11.19;37.33;100004.84;4859263;28;20050;-59
2023/05/05 07:26:33;;;;;;;5.80;1.85;;;;;;;11.15;36.97;100013.63;4862463;28;20395;-59
2023/05/05 07:29:06;;;;;;;1.98;1.15;;;;;;;10.86;37.47;99974.22;4869003;28;20113;-59
2023/05/05 07:31:36;;;;;;;4.72;1.40;;;;;;;10.92;37.27;100005.44;4851718;28;20077;-59
2023/05/05 07:34:06;;;;;;;9.73;1.65;;;;;;;10.76;37.80;100000.56;4853126;28;20054;-59
2023/05/05 07:36:38;;;;;;;23.05;1.90;;;;;;;10.62;37.90;100007.81;4864970;28;20443;-59
2023/05/05 07:39:09;;;;;;;5.28;2.20;;;;;;;10.60;38.46;100014.81;4865020;28;20111;-59
2023/05/05 07:41:39;;;;;;;5.97;1.98;;;;;;;10.54;38.45;100000.16;4865261;28;20062;-59
2023/05/05 07:44:10;;;;;;;3.35;1.52;;;;;;;10.40;38.42;99996.94;4865219;28;20042;-59
2023/05/05 07:46:40;;;;;;;14.48;2.10;;;;;;;10.49;38.39;100037.72;4864938;28;20065;-59
2023/05/05 07:49:11;;;;;;;7.18;1.80;;;;;;;10.26;39.02;100044.19;4867945;28;20585;-59
2023/05/05 07:51:43;;;;;;;7.07;2.05;;;;;;;10.16;40.03;100040.03;4865563;28;20087;-59
2023/05/05 07:54:14;;;;;;;3.85;1.60;;;;;;;9.99;40.19;100052.53;4859234;28;20058;-60
2023/05/05 07:56:44;;;;;;;9.70;2.00;;;;;;;9.84;40.67;100064.94;4866637;28;20050;-60
2023/05/05 07:59:15;;;;;;;7.10;2.13;;;;;;;9.77;41.55;100060.72;4864527;28;20739;-59
2023/05/05 08:01:45;;;;;;;4.10;1.60;;;;;;;9.78;41.53;100064.16;4865808;28;20061;-59
2023/05/05 08:04:15;;;;;;;1.92;1.45;;;;;;;9.63;42.37;100070.50;4849256;28;20084;-59
2023/05/05 08:06:50;;;;;;;4.93;1.27;;;;;;;9.35;42.63;100070.91;4865155;28;20068;-59
2023/05/05 08:09:21;;;;;;;4.45;1.52;;;;;;;9.15;43.11;100067.72;4865453;28;20688;-59
2023/05/05 08:11:51;;;;;;;6.50;1.60;;;;;;;9.05;43.50;100083.47;4864552;28;20631;-59
2023/05/05 08:14:22;;;;;;;7.40;1.80;;;;;;;8.90;43.42;100088.88;4865199;28;20394;-59
2023/05/05 08:16:52;;;;;;;4.57;2.10;;;;;;;8.81;44.01;100078.56;4863837;28;20064;-59
2023/05/05 08:19:24;;;;;;;4.22;1.60;;;;;;;8.68;43.87;100090.03;4864626;28;21134;-59
2023/05/05 08:21:59;;;;;;;3.58;1.60;;;;;;;8.50;44.15;100094.56;4865989;28;20057;-59
2023/05/05 08:24:30;;;;;;;6.35;1.65;;;;;;;8.34;44.60;100098.19;4864584;28;20482;-59
2023/05/05 08:27:01;;;;;;;2.20;1.48;;;;;;;8.11;45.26;100107.06;4862794;28;20049;-59
2023/05/05 08:29:31;;;;;;;3.80;1.35;;;;;;;7.95;45.16;100105.47;4857155;28;20045;-59
2023/05/05 08:32:02;;;;;;;14.50;2.20;;;;;;;7.89;45.95;100095.13;4873827;28;20053;-59
2023/05/05 08:34:32;;;;;;;6.63;1.77;;;;;;;7.93;46.26;100120.22;4867149;28;20490;-59
2023/05/05 08:37:04;;;;;;;3.70;1.20;;;;;;;7.89;46.19;100115.94;4864098;28;20471;-59
2023/05/05 08:39:35;;;;;;;4.28;1.30;;;;;;;7.77;46.58;100115.13;4866053;28;20049;-58
2023/05/05 08:42:05;;;;;;;5.70;1.48;;;;;;;7.71;46.57;100112.59;4860298;28;20053;-59
2023/05/05 08:44:36;;;;;;;2.35;1.33;;;;;;;7.54;46.76;100114.44;4857925;28;20053;-59
2023/05/05 08:47:06;;;;;;;1.73;1.00;;;;;;;7.39;46.67;100128.38;4853477;28;20048;-59
2023/05/05 08:49:43;;;;;;;2.80;1.13;;;;;;;7.35;47.20;100124.94;4849776;28;20182;-59
2023/05/05 08:52:18;;;;;;;6.78;1.70;;;;;;;7.33;47.22;100129.25;4859971;28;20730;-59
2023/05/05 08:54:54;;;;;;;10.20;1.95;;;;;;;7.30;47.07;100131.88;4864377;28;20049;-59
2023/05/05 08:57:33;;;;;;;3.65;1.40;;;;;;;7.25;47.12;100133.66;4856657;28;20058;-59
2023/05/05 09:00:25;;;;;;;7.28;1.40;;;;;;;7.28;46.44;100144.03;4848472;28;20674;-58
2023/05/05 09:02:59;;;;;;;4.72;1.10;;;;;;;7.00;46.26;100125.09;4833013;28;20231;-59
2023/05/05 09:05:31;;;;;;;6.00;1.30;;;;;;;7.07;46.37;100150.19;4809866;28;21006;-59
2023/05/05 09:08:05;;;;;;;2.95;1.23;;;;;;;7.02;46.63;100153.69;4840421;28;20434;-58
2023/05/05 09:10:37;;;;;;;10.45;1.30;;;;;;;6.87;47.28;100146.81;4835959;28;20468;-59
2023/05/05 09:13:14;;;;;;;6.20;1.48;;;;;;;6.75;47.48;100157.22;4845720;28;20064;-58
2023/05/05 09:15:59;;;;;;;8.45;1.48;;;;;;;6.65;47.90;100156.38;4833988;28;20123;-58
2023/05/05 09:18:31;;;;;;;4.82;1.30;;;;;;;6.53;48.54;100166.78;4845996;28;20077;-58
2023/05/05 09:21:04;;;;;;;3.65;1.10;;;;;;;6.41;48.52;100163.31;4844826;28;20120;-59
2023/05/05 09:23:39;;;;;;;3.35;1.35;;;;;;;6.38;49.60;100163.31;4833153;28;20522;-59
2023/05/05 09:26:09;;;;;;;7.30;1.60;;;;;;;6.29;50.45;100168.56;4844784;28;20049;-59
2023/05/05 09:28:51;;;;;;;5.28;1.90;;;;;;;6.16;51.34;100172.00;4862378;28;20057;-59
2023/05/05 09:31:25;;;;;;;6.18;1.60;;;;;;;6.03;51.32;100177.16;4837614;28;20521;-59
2023/05/05 09:34:02;;;;;;;3.90;1.40;;;;;;;5.94;51.97;100177.19;4855649;28;20394;-58
2023/05/05 09:36:43;;;;;;;3.45;1.25;;;;;;;5.78;51.91;100181.44;4865566;28;20054;-59
2023/05/05 09:39:17;;;;;;;3.17;1.50;;;;;;;5.71;52.70;100174.50;4861597;28;20047;-59
2023/05/05 09:41:50;;;;;;;4.18;1.40;;;;;;;5.71;52.49;100184.00;4867198;28;20067;-58
2023/05/05 09:44:34;;;;;;;3.63;1.85;;;;;;;5.67;52.23;100190.06;4867008;28;20054;-59
2023/05/05 09:47:05;;;;;;;3.55;1.30;;;;;;;5.67;52.39;100187.47;4858205;28;20680;-58
2023/05/05 09:49:58;;;;;;;1.90;1.35;;;;;;;5.67;52.68;100184.88;4856785;28;20112;-59
2023/05/05 09:52:30;;;;;;;3.70;1.40;;;;;;;5.69;52.55;100185.72;4858729;28;20061;-59
2023/05/05 09:55:02;;;;;;;6.57;1.27;;;;;;;5.66;52.63;100190.91;4869677;28;20226;-58
2023/05/05 09:57:34;;;;;;;2.67;1.20;;;;;;;5.45;52.25;100171.84;4876470;28;20068;-59
2023/05/05 10:00:05;;;;;;;2.38;1.20;;;;;;;5.67;52.84;100190.94;4868540;28;20060;-59
2023/05/05 10:02:38;;;;;;;9.10;2.03;;;;;;;5.50;52.31;100175.31;4868061;28;20580;-59
2023/05/05 10:05:11;;;;;;;5.68;1.40;;;;;;;5.54;52.16;100197.81;4868673;28;20080;-58
2023/05/05 10:07:43;;;;;;;7.93;2.00;;;;;;;5.39;52.55;100172.72;4853044;28;20138;-58
2023/05/05 10:10:18;;;;;;;3.67;1.50;;;;;;;5.51;52.65;100218.50;4863713;28;20046;-59
2023/05/05 10:12:52;;;;;;;8.52;1.52;;;;;;;5.46;52.95;100220.22;4866797;28;20049;-58
2023/05/05 10:15:23;;;;;;;4.60;1.40;;;;;;;5.47;53.08;100227.16;4869366;28;25845;-58
2023/05/05 10:17:55;;;;;;;1.73;1.30;;;;;;;5.43;52.49;100230.59;4863316;28;20454;-58
2023/05/05 10:20:37;;;;;;;5.22;1.40;;;;;;;5.55;53.18;100230.63;4858517;28;20058;-58
2023/05/05 10:23:11;;;;;;;5.00;1.20;;;;;;;5.74;53.55;100241.03;4868824;28;20045;-58
2023/05/05 10:25:47;;;;;;;5.50;1.40;;;;;;;5.70;52.37;100247.09;4868656;28;20053;-58
2023/05/05 10:28:29;;;;;;;3.28;1.42;;;;;;;5.66;52.62;100250.53;4858205;28;20104;-58
2023/05/05 10:31:02;;;;;;;9.23;1.70;;;;;;;5.68;52.73;100251.41;4841750;28;20069;-59
2023/05/05 10:33:54;;;;;;;5.88;1.55;;;;;;;5.49;52.50;100240.09;4841704;28;20469;-58
2023/05/05 10:36:32;;;;;;;2.40;1.30;;;;;;;5.52;53.67;100241.00;4852497;28;20172;-58
2023/05/05 10:39:05;;;;;;;4.13;1.52;;;;;;;5.54;53.16;100265.19;4853051;28;25567;-57
2023/05/05 10:41:40;;;;;;;2.35;1.48;;;;;;;5.37;53.06;100225.38;4875737;28;20064;-57
2023/05/05 10:44:12;;;;;;;5.60;1.30;;;;;;;5.54;52.10;100257.41;4899307;28;20055;-57
2023/05/05 10:46:44;;;;;;;6.38;1.60;;;;;;;5.55;52.64;100269.50;4896433;28;20064;-58
2023/05/05 10:49:25;;;;;;;6.18;1.55;;;;;;;5.55;52.61;100272.09;4899976;28;20060;-57
2023/05/05 10:52:03;;;;;;;2.78;1.67;;;;;;;5.55;52.80;100272.09;4890550;28;20547;-58
2023/05/05 10:54:40;;;;;;;8.90;2.97;;;;;;;5.56;53.47;100273.81;4887078;28;20487;-58
2023/05/05 10:57:16;;;;;;;2.65;1.50;;;;;;;5.52;53.22;100263.47;4868095;28;20089;-57
2023/05/05 10:59:46;;;;;;;5.57;1.88;;;;;;;5.43;53.29;100261.69;4845660;28;20046;-58
2023/05/05 11:02:25;;;;;;;3.17;1.30;;;;;;;5.32;53.32;100261.63;4873318;28;20049;-57
2023/05/05 11:05:16;;;;;;;2.47;1.30;;;;;;;5.38;53.81;100258.19;4852156;28;20042;-58
2023/05/05 11:07:48;;;;;;;9.15;1.73;;;;;;;5.24;53.73;100226.16;4867359;28;20440;-58
2023/05/05 11:10:21;;;;;;;3.25;2.30;;;;;;;5.42;53.86;100244.41;4853193;28;20058;-58
2023/05/05 11:13:21;;;;;;;5.82;2.13;;;;;;;5.53;53.27;100262.59;4858208;28;20488;-57
2023/05/05 11:15:52;;;;;;;;;;;;;;;5.46;53.97;100266.88;4862337;28;20135;-57
2023/05/05 11:18:34;;;;;;;15.73;3.10;;;;;;;5.22;53.95;100225.28;4859388;28;20487;-58
2023/05/05 11:21:20;;;;;;;26.52;6.22;;;;;;;5.50;54.14;100263.44;4852746;28;20132;-57
2023/05/05 11:23:51;;;;;;;7.30;2.10;;;;;;;5.36;54.40;100226.22;4856309;28;20083;-57
2023/05/05 11:26:52;;;;;;;3.20;1.50;;;;;;;5.57;53.89;100260.03;4870949;28;20049;-58
2023/05/05 11:29:24;;;;;;;2.80;1.60;;;;;;;5.57;54.11;100254.84;4865224;28;20061;-57
2023/05/05 11:32:14;;;;;;;6.60;1.58;;;;;;;5.51;53.57;100259.97;4850967;28;20053;-58
2023/05/05 11:34:53;;;;;;;6.55;1.50;;;;;;;5.44;54.16;100258.22;4856988;28;20148;-56
2023/05/05 11:37:28;;;;;;;2.10;1.40;;;;;;;5.46;54.15;100261.69;4854822;28;20054;-57
2023/05/05 11:40:11;;;;;;;4.70;1.50;;;;;;;5.54;54.23;100262.59;4862933;28;20056;-58
2023/05/05 11:42:43;;;;;;;4.72;1.52;;;;;;;5.50;53.84;100266.03;4868539;28;20069;-58
2023/05/05 11:45:25;;;;;;;3.90;1.95;;;;;;;5.53;53.82;100253.06;4870659;28;20069;-57
2023/05/05 11:48:27;;;;;;;3.00;1.90;;;;;;;5.57;54.22;100254.84;4852012;28;20054;-58
2023/05/05 11:50:57;;;;;;;3.75;2.03;;;;;;;5.62;55.44;100258.31;4851960;28;20064;-57
2023/05/05 11:53:31;;;;;;;3.20;1.50;;;;;;;5.58;55.58;100256.56;4849511;28;20234;-57
2023/05/05 11:56:17;;;;;;;5.68;2.05;;;;;;;5.56;55.33;100263.44;4860843;28;20064;-57
2023/05/05 11:59:05;;;;;;;7.88;2.25;;;;;;;5.56;55.68;100253.09;4864398;28;20057;-57
2023/05/05 12:01:41;;;;;;;5.65;2.50;;;;;;;5.32;55.03;100216.72;4865884;28;20053;-58
2023/05/05 12:04:13;;;;;;;5.53;2.28;;;;;;;5.26;55.32;100221.88;4876735;28;20485;-58
2023/05/05 12:06:45;;;;;;;3.75;1.77;;;;;;;5.36;55.85;100239.19;4854626;28;20046;-58
2023/05/05 12:09:19;;;;;;;6.22;2.35;;;;;;;5.38;55.67;100258.19;4862337;28;20050;-58
2023/05/05 12:11:51;;;;;;;4.57;1.83;;;;;;;5.49;55.24;100261.72;4852392;28;20045;-57
2023/05/05 12:14:22;;;;;;;6.57;2.22;;;;;;;5.10;55.25;100190.72;4860367;28;20140;-57